Aviation Digital Data Service (ADDS)

Output produced by METARs form (1148 UTC 23 April 2014)
found at http://www.aviationweather.gov/adds/metars/
 
KDEN 231134Z 2312/2418 18014G23KT P6SM SCT220 
     FM231300 21011KT P6SM BKN220 
     FM231500 24013KT P6SM SCT120 BKN200 
     FM231600 28015KT P6SM SCT080 BKN180 
     FM231900 32015KT P6SM SCT080 BKN150 
     FM232200 35017G24KT P6SM VCSH SCT070 BKN140 
     FM240200 34011KT P6SM SCT140 BKN200 
     FM240800 25006KT P6SM FEW200